Terminal Aerodrome Forecast
Issued by NWS

Home | Current Version | Previous Version | Text Only | Print | Product List | Glossary On
Versions: 1 2 3 4 5 6 7 8 9 10 11 12 13 14 15
350
FTUS43 KEAX 040520
TAFMKC
TAF
KMKC 040520Z 0406/0506 18006KT P6SM -RA OVC025
     FM040900 15005KT 4SM RA OVC006
     FM041200 18004KT 3SM -RA BR OVC004
     FM041500 23005KT P6SM VCSH OVC007
     FM041800 27007KT P6SM BKN015
     FM041900 27007KT P6SM SCT050=

USA.gov is the U.S. government's official web portal to all federal, state and local government web resources and services.